createdAt,value
2017-12-04T00:00:14.803Z,20.6
2017-12-04T00:01:16.422Z,20.6
2017-12-04T00:02:18.008Z,20.6
2017-12-04T00:03:19.624Z,20.6
2017-12-04T00:04:21.221Z,20.7
2017-12-04T00:05:23.115Z,20.6
2017-12-04T00:06:25.012Z,20.7
2017-12-04T00:07:26.629Z,20.7
2017-12-04T00:08:28.524Z,20.6
2017-12-04T00:09:30.140Z,20.7
2017-12-04T00:10:31.467Z,20.7
2017-12-04T00:11:33.106Z,20.7
2017-12-04T00:12:35.007Z,20.7
2017-12-04T00:13:36.344Z,20.6
2017-12-04T00:14:37.941Z,20.6
2017-12-04T00:15:39.558Z,20.7
2017-12-04T00:16:41.203Z,20.6
2017-12-04T00:17:42.821Z,20.6
2017-12-04T00:18:44.718Z,20.7
2017-12-04T00:19:46.333Z,20.7
2017-12-04T00:20:47.951Z,20.7
2017-12-04T00:21:49.847Z,20.7
2017-12-04T00:22:51.743Z,20.7
2017-12-04T00:23:53.639Z,20.6
2017-12-04T00:24:55.534Z,20.6
2017-12-04T00:25:57.434Z,20.7
2017-12-04T00:26:59.049Z,20.6
2017-12-04T00:28:00.945Z,20.6
2017-12-04T00:29:02.841Z,20.6
2017-12-04T00:30:04.458Z,20.6
2017-12-04T00:31:06.358Z,20.6
2017-12-04T00:32:07.678Z,20.6
2017-12-04T00:33:09.292Z,20.6
2017-12-04T00:34:10.614Z,20.7
2017-12-04T00:35:12.507Z,20.7
2017-12-04T00:36:14.434Z,20.6
2017-12-04T00:37:16.044Z,20.6
2017-12-04T00:38:17.085Z,20.7
2017-12-04T00:39:18.683Z,20.6
2017-12-04T00:40:20.006Z,20.6
2017-12-04T00:41:21.622Z,20.6
2017-12-04T00:42:23.543Z,20.7
2017-12-04T00:43:25.438Z,20.6
2017-12-04T00:44:27.335Z,20.6
2017-12-04T00:45:28.956Z,20.6
2017-12-04T00:46:30.851Z,20.6
2017-12-04T00:47:32.176Z,20.6
2017-12-04T00:48:33.792Z,20.7
2017-12-04T00:49:35.389Z,20.6
2017-12-04T00:50:36.986Z,20.6
2017-12-04T00:51:38.917Z,20.7
2017-12-04T00:52:40.824Z,20.7
2017-12-04T00:53:42.446Z,20.7
2017-12-04T00:54:44.045Z,20.6
2017-12-04T00:55:45.664Z,20.6
2017-12-04T00:56:47.279Z,20.7
2017-12-04T00:57:48.876Z,20.7
2017-12-04T00:58:50.501Z,20.6
2017-12-04T00:59:51.841Z,20.6
2017-12-04T01:00:53.161Z,20.7
2017-12-04T01:01:54.781Z,20.6
2017-12-04T01:02:56.679Z,20.6
2017-12-04T01:03:58.577Z,20.7
2017-12-04T01:04:59.923Z,20.7
2017-12-04T01:06:00.985Z,20.6
2017-12-04T01:07:02.605Z,20.6
2017-12-04T01:08:04.202Z,20.6
2017-12-04T01:09:06.095Z,20.7
2017-12-04T01:10:07.714Z,20.6
2017-12-04T01:11:09.612Z,20.6
2017-12-04T01:12:11.233Z,20.7
2017-12-04T01:13:12.851Z,20.6
2017-12-04T01:14:14.170Z,20.6
2017-12-04T01:15:15.509Z,20.7
2017-12-04T01:16:16.847Z,20.6
2017-12-04T01:17:18.467Z,20.7
2017-12-04T01:18:20.068Z,20.6
2017-12-04T01:19:21.664Z,20.6
2017-12-04T01:20:23.283Z,20.7
2017-12-04T01:21:24.628Z,20.7
2017-12-04T01:22:26.225Z,20.6
2017-12-04T01:23:27.823Z,20.7
2017-12-04T01:24:29.716Z,20.6
2017-12-04T01:25:30.761Z,20.7
2017-12-04T01:26:32.415Z,20.7
2017-12-04T01:27:33.756Z,20.7
2017-12-04T01:28:35.651Z,20.7
2017-12-04T01:29:37.266Z,20.7
2017-12-04T01:30:38.607Z,20.7
2017-12-04T01:31:40.204Z,20.6
2017-12-04T01:32:42.099Z,20.6
2017-12-04T01:33:43.163Z,20.6
2017-12-04T01:34:45.057Z,20.6
2017-12-04T01:35:46.677Z,20.7
2017-12-04T01:36:48.292Z,20.6
2017-12-04T01:37:49.894Z,20.7
2017-12-04T01:38:51.507Z,20.6
2017-12-04T01:39:52.576Z,20.6
2017-12-04T01:40:53.919Z,20.6
2017-12-04T01:41:55.814Z,20.7
2017-12-04T01:42:57.413Z,20.6
2017-12-04T01:43:59.033Z,20.6
2017-12-04T01:45:00.929Z,20.6
2017-12-04T01:46:02.548Z,20.7
2017-12-04T01:47:04.164Z,20.6
2017-12-04T01:48:06.058Z,20.7
2017-12-04T01:49:07.102Z,20.6
2017-12-04T01:50:08.998Z,20.7
2017-12-04T01:51:10.595Z,20.7
2017-12-04T01:52:12.493Z,20.7
2017-12-04T01:53:14.388Z,20.6
2017-12-04T01:54:15.735Z,20.6
2017-12-04T01:55:17.052Z,20.7
2017-12-04T01:56:18.671Z,20.7
2017-12-04T01:57:20.019Z,20.7
2017-12-04T01:58:21.357Z,20.6
2017-12-04T01:59:22.974Z,20.6
2017-12-04T02:00:24.594Z,20.7
2017-12-04T02:01:25.635Z,20.6
2017-12-04T02:02:27.533Z,20.7
2017-12-04T02:03:29.148Z,20.7
2017-12-04T02:04:30.505Z,20.6
2017-12-04T02:05:32.103Z,20.7
2017-12-04T02:06:33.724Z,20.6
2017-12-04T02:07:35.340Z,20.8
2017-12-04T02:08:37.235Z,20.6
2017-12-04T02:09:38.856Z,20.6
2017-12-04T02:10:40.749Z,20.7
2017-12-04T02:11:42.086Z,20.6
2017-12-04T02:12:43.682Z,20.7
2017-12-04T02:13:45.277Z,20.6
2017-12-04T02:14:46.876Z,20.7
2017-12-04T02:15:48.493Z,20.6
2017-12-04T02:16:50.390Z,20.7
2017-12-04T02:17:52.006Z,20.6
2017-12-04T02:18:53.904Z,20.6
2017-12-04T02:19:55.244Z,20.6
2017-12-04T02:20:56.861Z,20.6
2017-12-04T02:21:58.756Z,20.6
2017-12-04T02:23:00.377Z,20.6
2017-12-04T02:24:01.994Z,20.6
2017-12-04T02:25:03.624Z,20.7
2017-12-04T02:26:05.519Z,20.6
2017-12-04T02:27:07.139Z,20.7
2017-12-04T02:28:08.757Z,20.7
2017-12-04T02:29:10.354Z,20.6
2017-12-04T02:30:11.974Z,20.6
2017-12-04T02:31:13.590Z,20.6
2017-12-04T02:32:15.486Z,20.6
2017-12-04T02:33:17.111Z,20.6
2017-12-04T02:34:18.732Z,20.7
2017-12-04T02:35:20.628Z,20.7
2017-12-04T02:36:22.246Z,20.6
2017-12-04T02:37:24.140Z,20.6
2017-12-04T02:38:26.037Z,20.6
2017-12-04T02:39:27.659Z,20.7
2017-12-04T02:40:29.283Z,20.6
2017-12-04T02:41:31.176Z,20.7
2017-12-04T02:42:32.570Z,20.6
2017-12-04T02:43:34.190Z,20.6
2017-12-04T02:44:35.806Z,20.6
2017-12-04T02:45:37.705Z,20.7
2017-12-04T02:46:39.599Z,20.6
2017-12-04T02:47:40.643Z,20.7
2017-12-04T02:48:42.555Z,20.7
2017-12-04T02:49:44.159Z,20.6
2017-12-04T02:50:45.773Z,20.6
2017-12-04T02:51:47.391Z,20.6
2017-12-04T02:52:49.008Z,20.6
2017-12-04T02:53:50.351Z,20.7
2017-12-04T02:54:51.969Z,20.7
2017-12-04T02:55:53.573Z,20.7
2017-12-04T02:56:54.893Z,20.6
2017-12-04T02:57:56.511Z,20.6
2017-12-04T02:58:57.833Z,20.6
2017-12-04T02:59:59.731Z,20.6
2017-12-04T03:01:01.348Z,20.7
2017-12-04T03:02:02.391Z,20.6
2017-12-04T03:03:03.713Z,20.6
2017-12-04T03:04:05.033Z,20.6
2017-12-04T03:05:06.376Z,20.6
2017-12-04T03:06:07.715Z,20.6
2017-12-04T03:07:09.059Z,20.6
2017-12-04T03:08:10.677Z,20.6
2017-12-04T03:09:12.277Z,20.7
2017-12-04T03:10:13.617Z,20.7
2017-12-04T03:11:14.953Z,20.6
2017-12-04T03:12:16.275Z,20.6
2017-12-04T03:13:17.892Z,20.6
2017-12-04T03:14:19.514Z,20.6
2017-12-04T03:15:21.130Z,20.6
2017-12-04T03:16:22.198Z,20.6
2017-12-04T03:17:23.258Z,20.6
2017-12-04T03:18:24.878Z,20.6
2017-12-04T03:19:26.773Z,20.6
2017-12-04T03:20:28.372Z,20.6
2017-12-04T03:21:30.267Z,20.6
2017-12-04T03:22:32.201Z,20.6
2017-12-04T03:23:33.798Z,20.6
2017-12-04T03:24:34.840Z,20.6
2017-12-04T03:25:36.456Z,20.6
2017-12-04T03:26:38.380Z,20.6
2017-12-04T03:27:39.979Z,20.6
2017-12-04T03:28:41.891Z,20.6
2017-12-04T03:29:43.505Z,20.6
2017-12-04T03:30:45.163Z,20.6
2017-12-04T03:31:47.056Z,20.6
2017-12-04T03:32:48.979Z,20.6
2017-12-04T03:33:50.915Z,20.6
2017-12-04T03:34:52.529Z,20.6
2017-12-04T03:35:54.147Z,20.7
2017-12-04T03:36:55.765Z,20.7
2017-12-04T03:37:56.828Z,20.7
2017-12-04T03:38:58.445Z,20.6
2017-12-04T03:39:59.788Z,20.7
2017-12-04T03:41:01.120Z,20.6
2017-12-04T03:42:02.443Z,20.6
2017-12-04T03:43:04.043Z,20.7
2017-12-04T03:44:05.677Z,20.6
2017-12-04T03:45:07.281Z,20.7
2017-12-04T03:46:08.901Z,20.6
2017-12-04T03:47:10.523Z,20.6
2017-12-04T03:48:11.893Z,20.6
2017-12-04T03:49:13.213Z,20.6
2017-12-04T03:50:14.275Z,20.6
2017-12-04T03:51:15.593Z,20.6
2017-12-04T03:52:17.214Z,20.6
2017-12-04T03:53:19.112Z,20.7
2017-12-04T03:54:21.008Z,20.7
2017-12-04T03:55:22.909Z,20.6
2017-12-04T03:56:24.803Z,20.6
2017-12-04T03:57:26.421Z,20.6
2017-12-04T03:58:28.320Z,20.7
2017-12-04T03:59:30.219Z,20.6
2017-12-04T04:00:31.819Z,20.6
2017-12-04T04:01:33.164Z,20.6
2017-12-04T04:02:34.781Z,20.6
2017-12-04T04:03:36.398Z,20.6
2017-12-04T04:04:38.016Z,20.7
2017-12-04T04:05:39.633Z,20.6
2017-12-04T04:06:41.253Z,20.6
2017-12-04T04:07:42.892Z,20.6
2017-12-04T04:08:44.787Z,20.6
2017-12-04T04:09:46.683Z,20.6
2017-12-04T04:10:48.580Z,20.6
2017-12-04T04:11:50.476Z,20.6
2017-12-04T04:12:52.096Z,20.6
2017-12-04T04:13:53.991Z,20.6
2017-12-04T04:14:55.885Z,20.7
2017-12-04T04:15:57.781Z,20.6
2017-12-04T04:16:59.400Z,20.6
2017-12-04T04:18:01.015Z,20.7
2017-12-04T04:19:02.636Z,20.6
2017-12-04T04:20:04.257Z,20.6
2017-12-04T04:21:05.600Z,20.6
2017-12-04T04:22:06.924Z,20.6
2017-12-04T04:23:08.240Z,20.6
2017-12-04T04:24:09.861Z,20.6
2017-12-04T04:25:11.202Z,20.7
2017-12-04T04:26:13.162Z,20.6
2017-12-04T04:27:14.781Z,20.7
2017-12-04T04:28:16.677Z,20.6
2017-12-04T04:29:18.295Z,20.7
2017-12-04T04:30:20.194Z,20.7
2017-12-04T04:31:21.829Z,20.7
2017-12-04T04:32:23.713Z,20.7
2017-12-04T04:33:25.614Z,20.7
2017-12-04T04:34:27.209Z,20.6
2017-12-04T04:35:28.828Z,20.7
2017-12-04T04:36:30.771Z,20.7
2017-12-04T04:37:32.664Z,20.7
2017-12-04T04:38:34.287Z,20.8
2017-12-04T04:39:35.906Z,20.7
2017-12-04T04:40:37.560Z,20.8
2017-12-04T04:41:39.189Z,20.8
2017-12-04T04:42:41.086Z,20.7
2017-12-04T04:43:42.691Z,20.8
2017-12-04T04:44:44.031Z,20.7
2017-12-04T04:45:45.351Z,20.7
2017-12-04T04:46:47.028Z,20.7
2017-12-04T04:47:48.646Z,20.7
2017-12-04T04:48:49.990Z,20.7
2017-12-04T04:49:51.608Z,20.6
2017-12-04T04:50:53.205Z,20.8
2017-12-04T04:51:54.245Z,20.7
2017-12-04T04:52:55.842Z,20.7
2017-12-04T04:53:57.463Z,20.7
2017-12-04T04:54:59.362Z,20.7
2017-12-04T04:56:00.969Z,20.7
2017-12-04T04:57:02.579Z,20.7
2017-12-04T04:58:03.898Z,20.6
2017-12-04T04:59:05.526Z,20.7
2017-12-04T05:00:07.141Z,20.6
2017-12-04T05:01:08.494Z,20.7
2017-12-04T05:02:10.116Z,20.6
2017-12-04T05:03:11.709Z,20.7
2017-12-04T05:04:13.330Z,20.7
2017-12-04T05:05:14.647Z,20.7
2017-12-04T05:06:16.267Z,20.7
2017-12-04T05:07:17.868Z,20.6
2017-12-04T05:08:19.764Z,20.6
2017-12-04T05:09:21.365Z,20.7
2017-12-04T05:10:23.003Z,20.6
2017-12-04T05:11:24.890Z,20.6
2017-12-04T05:12:26.509Z,20.7
2017-12-04T05:13:28.147Z,20.6
2017-12-04T05:14:29.743Z,20.6
2017-12-04T05:15:31.638Z,20.6
2017-12-04T05:16:33.534Z,20.7
2017-12-04T05:17:34.872Z,20.6
2017-12-04T05:18:35.938Z,20.7
2017-12-04T05:19:37.556Z,20.6
2017-12-04T05:20:38.899Z,20.7
2017-12-04T05:21:40.238Z,20.6
2017-12-04T05:22:41.304Z,20.6
2017-12-04T05:23:43.203Z,20.7
2017-12-04T05:24:44.528Z,20.6
2017-12-04T05:25:46.154Z,20.6
2017-12-04T05:26:48.049Z,20.6
2017-12-04T05:27:49.947Z,20.6
2017-12-04T05:28:51.568Z,20.6
2017-12-04T05:29:53.188Z,20.6
2017-12-04T05:30:54.790Z,20.6
2017-12-04T05:31:56.689Z,20.6
2017-12-04T05:32:58.006Z,20.6
2017-12-04T05:33:59.623Z,20.6
2017-12-04T05:35:01.221Z,20.6
2017-12-04T05:36:02.560Z,20.6
2017-12-04T05:37:04.184Z,20.6
2017-12-04T05:38:06.077Z,20.6
2017-12-04T05:39:07.177Z,20.6
2017-12-04T05:40:08.520Z,20.6
2017-12-04T05:41:09.871Z,20.6
2017-12-04T05:42:11.768Z,20.6
2017-12-04T05:43:13.365Z,20.5
2017-12-04T05:44:14.987Z,20.5
2017-12-04T05:45:16.879Z,20.6
2017-12-04T05:46:18.776Z,20.6
2017-12-04T05:47:20.398Z,20.6
2017-12-04T05:48:22.292Z,20.6
2017-12-04T05:49:23.892Z,20.5
2017-12-04T05:50:25.234Z,20.5
2017-12-04T05:51:26.297Z,20.5
2017-12-04T05:52:27.917Z,20.6
2017-12-04T05:53:29.825Z,20.6
2017-12-04T05:54:31.779Z,20.6
2017-12-04T05:55:33.375Z,20.6
2017-12-04T05:56:34.997Z,20.6
2017-12-04T05:57:36.594Z,20.6
2017-12-04T05:58:38.210Z,20.6
2017-12-04T05:59:39.255Z,20.6
2017-12-04T06:00:40.573Z,20.5
2017-12-04T06:01:42.470Z,20.5
2017-12-04T06:02:44.096Z,20.5
2017-12-04T06:03:45.991Z,20.5
2017-12-04T06:04:47.309Z,20.5
2017-12-04T06:05:49.205Z,20.4
2017-12-04T06:06:51.104Z,20.5
2017-12-04T06:07:52.721Z,20.5
2017-12-04T06:08:54.320Z,20.6
2017-12-04T06:09:55.936Z,20.5
2017-12-04T06:10:57.831Z,20.4
2017-12-04T06:11:59.427Z,20.4
2017-12-04T06:13:01.326Z,20.6
2017-12-04T06:14:02.943Z,20.6
2017-12-04T06:15:04.561Z,20.6
2017-12-04T06:16:05.907Z,20.6
2017-12-04T06:17:07.511Z,20.6
2017-12-04T06:18:09.100Z,20.7
2017-12-04T06:19:10.717Z,20.6
2017-12-04T06:20:12.059Z,20.6
2017-12-04T06:21:13.676Z,20.7
2017-12-04T06:22:15.295Z,20.6
2017-12-04T06:23:17.203Z,20.7
2017-12-04T06:24:19.099Z,20.6
2017-12-04T06:25:20.757Z,20.7
2017-12-04T06:26:22.377Z,20.6
2017-12-04T06:27:24.052Z,20.7
2017-12-04T06:28:25.657Z,20.7
2017-12-04T06:29:27.068Z,20.7
2017-12-04T06:30:28.662Z,20.7
2017-12-04T06:31:30.556Z,20.7
2017-12-04T06:32:31.644Z,20.7
2017-12-04T06:33:33.262Z,20.7
2017-12-04T06:34:35.190Z,20.8
2017-12-04T06:35:36.806Z,20.8
2017-12-04T06:36:38.703Z,20.8
2017-12-04T06:37:40.601Z,20.7
2017-12-04T06:38:42.498Z,20.8
2017-12-04T06:39:43.816Z,20.7
2017-12-04T06:40:45.432Z,20.8
2017-12-04T06:41:47.051Z,20.8
2017-12-04T06:42:48.648Z,20.8
2017-12-04T06:43:50.266Z,20.8
2017-12-04T06:44:52.161Z,20.8
2017-12-04T06:45:53.205Z,20.8
2017-12-04T06:46:54.808Z,20.8
2017-12-04T06:47:56.130Z,20.7
2017-12-04T06:48:58.028Z,20.9
2017-12-04T06:49:59.348Z,20.8
2017-12-04T06:51:00.739Z,20.9
2017-12-04T06:52:02.634Z,20.9
2017-12-04T06:53:03.685Z,20.8
2017-12-04T06:54:05.286Z,20.9
2017-12-04T06:55:07.181Z,20.8
2017-12-04T06:56:08.554Z,20.8
2017-12-04T06:57:09.628Z,20.9
2017-12-04T06:58:11.523Z,20.9
2017-12-04T06:59:13.144Z,20.8
2017-12-04T07:00:14.759Z,20.8
2017-12-04T07:01:16.104Z,20.8
2017-12-04T07:02:17.707Z,20.9
2017-12-04T07:03:19.327Z,20.9
2017-12-04T07:04:20.926Z,20.8
2017-12-04T07:05:22.548Z,20.8
2017-12-04T07:06:24.149Z,20.8
2017-12-04T07:07:26.044Z,20.8
2017-12-04T07:08:27.939Z,20.9
2017-12-04T07:09:29.563Z,20.8
2017-12-04T07:10:30.885Z,20.9
2017-12-04T07:11:32.784Z,20.9
2017-12-04T07:12:33.834Z,20.8
2017-12-04T07:13:35.454Z,20.8
2017-12-04T07:14:37.074Z,20.9
2017-12-04T07:15:38.694Z,20.9
2017-12-04T07:16:40.590Z,20.9
2017-12-04T07:17:42.212Z,20.9
2017-12-04T07:18:44.151Z,20.9
2017-12-04T07:19:45.475Z,20.9
2017-12-04T07:20:46.819Z,21
2017-12-04T07:21:48.443Z,20.9
2017-12-04T07:22:49.765Z,20.9
2017-12-04T07:23:51.661Z,20.9
2017-12-04T07:24:52.704Z,20.9
2017-12-04T07:25:54.328Z,21
2017-12-04T07:26:55.669Z,20.9
2017-12-04T07:27:57.287Z,20.9
2017-12-04T07:28:59.182Z,20.9
2017-12-04T07:30:00.798Z,20.9
2017-12-04T07:31:02.420Z,21
2017-12-04T07:32:04.040Z,20.9
2017-12-04T07:33:05.365Z,20.9
2017-12-04T07:34:06.983Z,20.9
2017-12-04T07:35:08.620Z,21
2017-12-04T07:36:10.242Z,21
2017-12-04T07:37:12.139Z,20.9
2017-12-04T07:38:13.481Z,20.9
2017-12-04T07:39:15.388Z,20.9
2017-12-04T07:40:17.009Z,20.9
2017-12-04T07:41:18.327Z,20.9
2017-12-04T07:42:19.723Z,20.9
2017-12-04T07:43:21.319Z,20.9
2017-12-04T07:44:22.659Z,20.9
2017-12-04T07:45:24.258Z,20.9
2017-12-04T07:46:25.578Z,20.9
2017-12-04T07:47:27.201Z,20.9
2017-12-04T07:48:29.102Z,20.9
2017-12-04T07:49:30.722Z,21
2017-12-04T07:50:32.046Z,20.9
2017-12-04T07:51:33.945Z,20.9
2017-12-04T07:52:35.565Z,20.9
2017-12-04T07:53:36.908Z,20.9
2017-12-04T07:54:38.528Z,20.9
2017-12-04T07:55:40.130Z,20.9
2017-12-04T07:56:41.748Z,20.9
2017-12-04T07:57:43.071Z,20.9
2017-12-04T07:58:44.968Z,20.9
2017-12-04T07:59:46.398Z,20.9
2017-12-04T08:00:47.166Z,20.8
2017-12-04T08:01:48.784Z,20.9
2017-12-04T08:02:50.418Z,20.9
2017-12-04T08:03:52.036Z,20.8
2017-12-04T08:04:53.943Z,20.8
2017-12-04T08:05:55.755Z,20.9
2017-12-04T08:06:57.714Z,20.9
2017-12-04T08:07:58.984Z,20.8
2017-12-04T08:09:00.586Z,20.8
2017-12-04T08:10:01.631Z,20.8
2017-12-04T08:11:03.248Z,20.8
2017-12-04T08:12:04.860Z,20.9
2017-12-04T08:13:06.204Z,20.9
2017-12-04T08:14:07.824Z,20.7
2017-12-04T08:15:09.737Z,20.8
2017-12-04T08:16:11.061Z,20.7
2017-12-04T08:17:12.957Z,20.8
2017-12-04T08:18:14.297Z,20.8
2017-12-04T08:19:15.656Z,20.8
2017-12-04T08:20:17.557Z,20.8
2017-12-04T08:21:18.878Z,20.8
2017-12-04T08:22:20.483Z,20.8
2017-12-04T08:23:22.379Z,20.8
2017-12-04T08:24:23.983Z,20.8
2017-12-04T08:25:25.879Z,20.7
2017-12-04T08:26:26.918Z,20.8
2017-12-04T08:27:28.542Z,20.7
2017-12-04T08:28:30.439Z,20.8
2017-12-04T08:29:32.342Z,20.8
2017-12-04T08:30:33.957Z,20.8
2017-12-04T08:31:35.576Z,20.7
2017-12-04T08:32:37.475Z,20.8
2017-12-04T08:33:39.079Z,20.8
2017-12-04T08:34:40.701Z,20.8
2017-12-04T08:35:42.320Z,20.8
2017-12-04T08:36:43.643Z,20.8
2017-12-04T08:37:45.539Z,20.8
2017-12-04T08:38:47.486Z,20.8
2017-12-04T08:39:49.104Z,20.8
2017-12-04T08:40:51.003Z,20.8
2017-12-04T08:41:52.898Z,20.8
2017-12-04T08:42:54.795Z,20.8
2017-12-04T08:43:56.138Z,20.8
2017-12-04T08:44:57.760Z,20.8
2017-12-04T08:45:59.378Z,20.8
2017-12-04T08:47:01.278Z,20.8
2017-12-04T08:48:02.897Z,20.8
2017-12-04T08:49:03.939Z,20.9
2017-12-04T08:50:05.286Z,20.8
2017-12-04T08:51:07.180Z,20.9
2017-12-04T08:52:08.801Z,20.8
2017-12-04T08:53:10.423Z,20.9
2017-12-04T08:54:12.093Z,20.8
2017-12-04T08:55:13.412Z,20.9
2017-12-04T08:56:14.453Z,20.9
2017-12-04T08:57:16.355Z,20.9
2017-12-04T08:58:17.671Z,20.9
2017-12-04T08:59:19.620Z,20.9
2017-12-04T09:00:21.517Z,21
2017-12-04T09:01:23.412Z,20.9
2017-12-04T09:02:25.030Z,20.9
2017-12-04T09:03:26.075Z,21
2017-12-04T09:04:27.695Z,20.9
2017-12-04T09:05:29.088Z,20.9
2017-12-04T09:06:30.683Z,21
2017-12-04T09:07:32.283Z,21
2017-12-04T09:08:33.621Z,21
2017-12-04T09:09:35.240Z,21
2017-12-04T09:10:36.861Z,21
2017-12-04T09:11:38.462Z,21
2017-12-04T09:12:40.109Z,21.1
2017-12-04T09:13:42.006Z,20.9
2017-12-04T09:14:43.075Z,21
2017-12-04T09:15:44.687Z,21
2017-12-04T09:16:46.305Z,21
2017-12-04T09:17:47.927Z,21
2017-12-04T09:18:49.547Z,21.1
2017-12-04T09:19:51.146Z,21
2017-12-04T09:20:52.764Z,21
2017-12-04T09:21:54.661Z,21.1
2017-12-04T09:22:55.705Z,21.1
2017-12-04T09:23:57.332Z,21.1
2017-12-04T09:24:58.945Z,21.1
2017-12-04T09:26:00.584Z,21
2017-12-04T09:27:01.632Z,21
2017-12-04T09:28:02.954Z,21
2017-12-04T09:29:04.581Z,21.1
2017-12-04T09:30:05.918Z,21.1
2017-12-04T09:31:07.239Z,21.1
2017-12-04T09:32:08.581Z,21.1
2017-12-04T09:33:10.203Z,21.1
2017-12-04T09:34:11.821Z,21.1
2017-12-04T09:35:13.719Z,21
2017-12-04T09:36:15.618Z,21
2017-12-04T09:37:17.221Z,21.1
2017-12-04T09:38:18.844Z,21.1
2017-12-04T09:39:20.446Z,21.1
2017-12-04T09:40:21.763Z,21.1
2017-12-04T09:41:23.091Z,21.1
2017-12-04T09:42:24.412Z,21.1
2017-12-04T09:43:26.034Z,21.1
2017-12-04T09:44:27.352Z,21.1
2017-12-04T09:45:28.951Z,21
2017-12-04T09:46:30.568Z,21.2
2017-12-04T09:47:32.464Z,21.2
2017-12-04T09:48:34.365Z,21.1
2017-12-04T09:49:36.257Z,21.1
2017-12-04T09:50:37.605Z,21.2
2017-12-04T09:51:39.497Z,21.2
2017-12-04T09:52:41.093Z,21.2
2017-12-04T09:53:42.414Z,21.1
2017-12-04T09:54:43.736Z,21.1
2017-12-04T09:55:45.357Z,21.2
2017-12-04T09:56:46.980Z,21.1
2017-12-04T09:57:48.596Z,21.1
2017-12-04T09:58:50.492Z,21.1
2017-12-04T09:59:52.111Z,21
2017-12-04T10:00:54.004Z,21.1
2017-12-04T10:01:55.327Z,21
2017-12-04T10:02:57.224Z,21.1
2017-12-04T10:03:59.121Z,21.1
2017-12-04T10:05:00.748Z,21.1
2017-12-04T10:06:01.509Z,21.1
2017-12-04T10:07:02.832Z,21
2017-12-04T10:08:04.155Z,21.1
2017-12-04T10:09:05.779Z,21.1
2017-12-04T10:10:07.376Z,21.2
2017-12-04T10:11:09.003Z,21.1
2017-12-04T10:12:10.344Z,21.1
2017-12-04T10:13:11.960Z,21.1
2017-12-04T10:14:13.301Z,21.1
2017-12-04T10:15:14.642Z,21
2017-12-04T10:16:16.535Z,21.1
2017-12-04T10:17:18.159Z,21.1
2017-12-04T10:18:19.498Z,21.1
2017-12-04T10:19:21.121Z,21.2
2017-12-04T10:20:22.443Z,21.1
2017-12-04T10:21:23.914Z,21.2
2017-12-04T10:22:25.255Z,21.1
2017-12-04T10:23:26.302Z,21
2017-12-04T10:24:27.623Z,21.1
2017-12-04T10:25:29.249Z,21.1
2017-12-04T10:26:31.178Z,21
2017-12-04T10:27:32.520Z,21
2017-12-04T10:28:34.136Z,21.1
2017-12-04T10:29:35.756Z,21
2017-12-04T10:30:37.356Z,21.1
2017-12-04T10:31:39.259Z,21.2
2017-12-04T10:32:41.158Z,21.1
2017-12-04T10:33:43.052Z,21.1
2017-12-04T10:34:44.122Z,21.1
2017-12-04T10:35:45.444Z,21.1
2017-12-04T10:36:47.340Z,21.1
2017-12-04T10:37:49.235Z,21.1
2017-12-04T10:38:50.585Z,21.2
2017-12-04T10:39:52.206Z,21.1
2017-12-04T10:40:53.555Z,21.1
2017-12-04T10:41:55.453Z,21.1
2017-12-04T10:42:57.351Z,21.2
2017-12-04T10:43:59.248Z,21.2
2017-12-04T10:45:00.868Z,21.2
2017-12-04T10:46:02.777Z,21.1
2017-12-04T10:47:04.680Z,21.2
2017-12-04T10:48:06.023Z,21.2
2017-12-04T10:49:07.641Z,21.2
2017-12-04T10:50:09.540Z,21.1
2017-12-04T10:51:11.438Z,21.2
2017-12-04T10:52:13.037Z,21.1
2017-12-04T10:53:14.099Z,21.2
2017-12-04T10:54:15.698Z,21.1
2017-12-04T10:55:17.599Z,21.2
2017-12-04T10:56:19.502Z,21.2
2017-12-04T10:57:21.114Z,21
2017-12-04T10:58:22.431Z,21.1
2017-12-04T10:59:24.031Z,21.2
2017-12-04T11:00:25.384Z,21.1
2017-12-04T11:01:27.278Z,21.1
2017-12-04T11:02:28.623Z,21.1
2017-12-04T11:03:29.964Z,21.1
2017-12-04T11:04:31.621Z,21.1
2017-12-04T11:05:33.534Z,21.1
2017-12-04T11:06:35.473Z,21.1
2017-12-04T11:07:36.816Z,21.1
2017-12-04T11:08:38.433Z,21.1
2017-12-04T11:09:39.776Z,21.1
2017-12-04T11:10:41.395Z,21.2
2017-12-04T11:11:43.015Z,21.1
2017-12-04T11:12:44.361Z,21.1
2017-12-04T11:13:45.982Z,21.2
2017-12-04T11:14:47.918Z,21.2
2017-12-04T11:15:49.816Z,21.1
2017-12-04T11:16:51.137Z,21.1
2017-12-04T11:17:53.074Z,21.1
2017-12-04T11:18:54.396Z,21.1
2017-12-04T11:19:55.460Z,21.2
2017-12-04T11:20:57.085Z,21.1
2017-12-04T11:21:58.704Z,21.2
2017-12-04T11:23:00.025Z,21.2
2017-12-04T11:24:01.644Z,21.1
2017-12-04T11:25:03.543Z,21.1
2017-12-04T11:26:05.164Z,21.1
2017-12-04T11:27:07.033Z,21.1
2017-12-04T11:28:08.933Z,21.1
2017-12-04T11:29:10.556Z,21.2
2017-12-04T11:30:12.176Z,21.2
2017-12-04T11:31:13.794Z,21.2
2017-12-04T11:32:15.689Z,21.2
2017-12-04T11:33:17.346Z,21.2
2017-12-04T11:34:18.974Z,21.2
2017-12-04T11:35:20.316Z,21.3
2017-12-04T11:36:22.211Z,21.2
2017-12-04T11:37:24.107Z,21.2
2017-12-04T11:38:25.726Z,21.2
2017-12-04T11:39:27.049Z,21.2
2017-12-04T11:40:28.959Z,21.2
2017-12-04T11:41:30.566Z,21.3
2017-12-04T11:42:32.184Z,21.3
2017-12-04T11:43:33.822Z,21.2
2017-12-04T11:44:35.166Z,21.3
2017-12-04T11:45:36.487Z,21.3
2017-12-04T11:46:38.386Z,21.3
2017-12-04T11:47:39.999Z,21.3
2017-12-04T11:48:41.617Z,21.3
2017-12-04T11:49:42.963Z,21.2
2017-12-04T11:50:44.011Z,21.3
2017-12-04T11:51:45.911Z,21.3
2017-12-04T11:52:47.808Z,21.3
2017-12-04T11:53:49.407Z,21.3
2017-12-04T11:54:50.727Z,21.3
2017-12-04T11:55:52.346Z,21.3
2017-12-04T11:56:54.004Z,21.3
2017-12-04T11:57:55.327Z,21.3
2017-12-04T11:58:56.950Z,21.3
2017-12-04T11:59:58.297Z,21.2
2017-12-04T12:00:59.343Z,21.2
2017-12-04T12:02:01.243Z,21.3
2017-12-04T12:03:02.914Z,21.2
2017-12-04T12:04:04.811Z,21.2
2017-12-04T12:05:06.431Z,21.3
2017-12-04T12:06:07.775Z,21.3
2017-12-04T12:07:09.374Z,21.3
2017-12-04T12:08:10.976Z,21.3
2017-12-04T12:09:12.044Z,21.3
2017-12-04T12:10:13.111Z,21.3
2017-12-04T12:11:14.732Z,21.3
2017-12-04T12:12:16.354Z,21.3
2017-12-04T12:13:18.251Z,21.3
2017-12-04T12:14:19.879Z,21.3
2017-12-04T12:15:21.219Z,21.3
2017-12-04T12:16:22.836Z,21.3
2017-12-04T12:17:24.437Z,21.3
2017-12-04T12:18:26.059Z,21.3
2017-12-04T12:19:27.398Z,21.3
2017-12-04T12:20:29.018Z,21.2
2017-12-04T12:21:30.913Z,21.3
2017-12-04T12:22:32.539Z,21.3
2017-12-04T12:23:34.161Z,21.3
2017-12-04T12:24:36.062Z,21.3
2017-12-04T12:25:37.676Z,21.3
2017-12-04T12:26:39.017Z,21.3
2017-12-04T12:27:40.363Z,21.3
2017-12-04T12:28:42.266Z,21.3
2017-12-04T12:29:44.167Z,21.3
2017-12-04T12:30:45.785Z,21.3
2017-12-04T12:31:47.379Z,21.3
2017-12-04T12:32:49.287Z,21.2
2017-12-04T12:33:50.927Z,21.3
2017-12-04T12:34:52.528Z,21.3
2017-12-04T12:35:54.431Z,21.3
2017-12-04T12:36:56.327Z,21.3
2017-12-04T12:37:58.226Z,21.3
2017-12-04T12:38:59.845Z,21.3
2017-12-04T12:40:01.167Z,21.3
2017-12-04T12:41:03.066Z,21.2
2017-12-04T12:42:04.689Z,21.3
2017-12-04T12:43:06.311Z,21.3
2017-12-04T12:44:07.633Z,21.3
2017-12-04T12:45:09.534Z,21.2
2017-12-04T12:46:11.428Z,21.3
2017-12-04T12:47:13.049Z,21.3
2017-12-04T12:48:14.649Z,21.2
2017-12-04T12:49:16.549Z,21.2
2017-12-04T12:50:17.874Z,21.3
2017-12-04T12:51:19.492Z,21.2
2017-12-04T12:52:21.093Z,21.2
2017-12-04T12:53:22.712Z,21.2
2017-12-04T12:54:24.607Z,21.3
2017-12-04T12:55:26.525Z,21.2
2017-12-04T12:56:28.116Z,21.2
2017-12-04T12:57:29.734Z,21.3
2017-12-04T12:58:31.631Z,21.2
2017-12-04T12:59:33.252Z,21.2
2017-12-04T13:00:35.153Z,21.2
2017-12-04T13:01:36.773Z,21.2
2017-12-04T13:02:38.668Z,21.2
2017-12-04T13:03:40.284Z,21.2
2017-12-04T13:04:41.382Z,21.2
2017-12-04T13:05:43.003Z,21.2
2017-12-04T13:06:44.039Z,21.1
2017-12-04T13:07:45.934Z,21.2
2017-12-04T13:08:47.529Z,21.2
2017-12-04T13:09:48.578Z,21.2
2017-12-04T13:10:50.474Z,21.1
2017-12-04T13:11:52.095Z,21.1
2017-12-04T13:12:53.719Z,21.1
2017-12-04T13:13:55.058Z,21.2
2017-12-04T13:14:56.721Z,21.2
2017-12-04T13:15:58.346Z,21.1
2017-12-04T13:16:59.684Z,21.1
2017-12-04T13:18:01.030Z,21.1
2017-12-04T13:19:02.631Z,21.1
2017-12-04T13:20:04.533Z,21.1
2017-12-04T13:21:06.156Z,21.1
2017-12-04T13:22:07.757Z,21.1
2017-12-04T13:23:09.357Z,21
2017-12-04T13:24:11.252Z,21
2017-12-04T13:25:12.871Z,21.1
2017-12-04T13:26:14.471Z,21
2017-12-04T13:27:16.090Z,21.1
2017-12-04T13:28:17.990Z,21.2
2017-12-04T13:29:19.587Z,21.1
2017-12-04T13:30:21.207Z,21
2017-12-04T13:31:23.103Z,21.1
2017-12-04T13:32:25.000Z,21.2
2017-12-04T13:33:26.622Z,21.1
2017-12-04T13:34:28.240Z,21.2
2017-12-04T13:35:29.938Z,21
2017-12-04T13:36:31.287Z,21
2017-12-04T13:37:32.599Z,21.1
2017-12-04T13:38:34.496Z,21.2
2017-12-04T13:39:36.114Z,21.2
2017-12-04T13:40:37.455Z,21.2
2017-12-04T13:41:38.778Z,21.1
2017-12-04T13:42:40.397Z,21.2